CheckWX is a tool to help pilots better visualize weather data.  It is not intended as a substitute for an official pre-flight weather briefing.

02:07:30 UTC

KARR METAR
Aurora Municipal Airport
Chicago/Aurora, Illinois, USA
Current

1 hour ago

KARR 200052Z 25009KT 10SM -RA BKN040 OVC050 26/23 A2998 RMK AO2 RAB51 SLP147 P0000 T02560228
Observed
Aug-20 @ 00:52 UTC
Wind
  • 250° at 9 KTS
Visibility
10 SM
Flight Rules
VFR
Conditions
Light Rain
Cloud Levels
  • Broken at 4,000' AGL
  • Overcast at 5,000' AGL
Temperature
26°C / 79°F
Dewpoint
23°C / 73°F
Humidity
84%
Altimeter
29.98" Hg
Pressure
1015.22 hPa
Current Rain
0.01"
Previous

2 hours ago

KARR 192352Z 14003KT 10SM FEW050 FEW060 28/22 A2998 RMK AO2 SLP147 60009 T02780222 10306 20250 56005
Observed
Aug-19 @ 23:52 UTC
Wind
  • 140° at 3 KTS
Visibility
10 SM
Flight Rules
VFR
Cloud Levels
  • Few at 5,000' AGL
  • Few at 6,000' AGL
Temperature
28°C / 82°F
Dewpoint
22°C / 72°F
Heat Index
30°C / 86°F
Humidity
70%
Altimeter
29.98" Hg
Pressure
1015.22 hPa
Previous

3 hours ago

KARR 192252Z 16004KT 10SM BKN044 28/22 A2999 RMK AO2 SLP150 T02830222
Observed
Aug-19 @ 22:52 UTC
Wind
  • 160° at 4 KTS
Visibility
10 SM
Flight Rules
VFR
Cloud Levels
  • Broken at 4,400' AGL
Temperature
28°C / 82°F
Dewpoint
22°C / 72°F
Heat Index
30°C / 86°F
Humidity
70%
Altimeter
29.99" Hg
Pressure
1015.62 hPa